Airfield :
LOGIN :

Register | Disclaimer

   EN    FR    IT 

 










Legend :    VFR   Marginal VFR   IFR   Intensive IFR   Very Intensive IFR
Visi :
Ceiling :
>= 8 km
>= 3000ft
5 to 8 km
1000 to 3000 ft
1500m to 5 km
500 to 1000 ft
800 to 1500m
200 to 500 ft
< 800m
< 200 ft
Symbols :   Thunderstorms  Fog  Heavy snow  Heavy precipitations  Wind > 20 kt
SIGMETs :     Misc.  Thunderstorms  Icing  Turbulence  Mountain Waves  Volcanic Ashes






- Airport Elevation : 17 ft
- IATA code : GRQ


EHGG - Groningen Eelde

CURRENT METAR :
  • 041155Z AUTO 26014KT 220V300 9999 SCT038 SCT044 21/10 Q1019 NOSIG

EXPIRED METARs :
  • 041125Z AUTO 25011KT 200V290 9999 OVC035 20/11 Q1019 NOSIG
  • 041055Z AUTO 25010KT 210V300 9999 BKN036 OVC043 20/12 Q1019 NOSIG
  • 041025Z AUTO 25008KT 220V310 9999 FEW039 SCT048 21/12 Q1019 NOSIG
  • 040955Z AUTO 26009KT 230V300 9999 FEW033 SCT038 BKN044 19/11 Q1019 NOSIG
  • 040925Z AUTO 26009KT 220V310 9999 FEW045 19/12 Q1019 NOSIG

TAF TAF EHGG
Valid from the 04 at 12:00 until the 05 at 18:00 UTC


041046Z 0412/0518 27011KT 9999 SCT035
BECMG 0417/0420 24005KT
BECMG 0508/0511 29011KT
PROB30
TEMPO 0508/0515 7000 -SHRA FEW025TCU



MET'MAP, your aeronautical weather chart ! - Copyright ORBIFLY December 2007 - Disclaimer

ORBIFLY MET'MAP TEAM :

Programming & Development : Alexandra Zaïnal
Original concept : Baudouin d'Aumeries
Technical & hardware support : Manuel Goepfert
Assistance : Marc-Olivier Méhu




SOURCES & CREDITS :

   NOAA